Time;durP1;ratioP1;P1;durP2;ratioP2;P2;SDS_P1;SDS_P2;PMS_P1;PMS_P2;Temp;Humidity;BMP_temperature;BMP_pressure;BME280_temperature;BME280_humidity;BME280_pressure;Samples;Min_cycle;Max_cycle;Signal;HPM_P1;HPM_P2
2023/01/03 00:00:01;;;;;;;2.30;2.10;;;;;;;;;;5019245;28;20199;-78
2023/01/03 00:02:28;;;;;;;2.60;2.03;;;;;;;;;;5011540;28;20231;-78
2023/01/03 00:04:55;;;;;;;2.17;2.07;;;;;;;;;;5016232;28;20203;-78
2023/01/03 00:07:33;;;;;;;2.50;2.30;;;;;;;;;;5031045;28;20250;-78
2023/01/03 00:10:00;;;;;;;3.50;3.20;;;;;;;;;;5031354;28;20257;-78
2023/01/03 00:12:30;;;;;;;2.53;2.30;;;;;;;;;;5031401;28;20218;-78
2023/01/03 00:14:58;;;;;;;3.27;2.40;;;;;;;;;;5031947;28;20202;-78
2023/01/03 00:17:25;;;;;;;3.60;2.50;;;;;;;;;;5030967;28;20242;-79
2023/01/03 00:19:52;;;;;;;2.70;2.50;;;;;;;;;;5019836;28;20207;-78
2023/01/03 00:22:19;;;;;;;2.83;2.60;;;;;;;;;;5011437;28;20235;-78
2023/01/03 00:24:47;;;;;;;3.03;2.80;;;;;;;;;;5011873;28;20218;-78
2023/01/03 00:27:15;;;;;;;4.67;2.70;;;;;;;;;;5011293;28;20243;-78
2023/01/03 00:29:44;;;;;;;3.37;2.83;;;;;;;;;;5011551;28;20231;-78
2023/01/03 00:32:11;;;;;;;3.20;2.90;;;;;;;;;;5011302;28;20231;-78
2023/01/03 00:34:38;;;;;;;3.37;3.07;;;;;;;;;;5011941;28;20261;-78
2023/01/03 00:37:05;;;;;;;3.00;2.70;;;;;;;;;;5010427;28;20235;-79
2023/01/03 00:39:32;;;;;;;3.17;2.73;;;;;;;;;;5011313;28;20215;-79
2023/01/03 00:41:59;;;;;;;3.17;2.97;;;;;;;;;;5011381;28;20231;-78
2023/01/03 00:44:26;;;;;;;3.20;2.97;;;;;;;;;;5012101;28;20207;-78
2023/01/03 00:46:54;;;;;;;3.23;2.93;;;;;;;;;;5011667;28;20630;-78
2023/01/03 00:49:21;;;;;;;3.67;3.37;;;;;;;;;;5011635;28;20216;-78
2023/01/03 00:51:49;;;;;;;3.40;3.20;;;;;;;;;;5011269;28;20615;-79
2023/01/03 00:54:16;;;;;;;6.53;3.20;;;;;;;;;;5012459;28;20599;-78
2023/01/03 00:56:44;;;;;;;3.70;3.40;;;;;;;;;;5014614;28;20247;-78
2023/01/03 00:59:11;;;;;;;4.90;3.40;;;;;;;;;;5014994;28;20203;-78
2023/01/03 01:01:39;;;;;;;4.00;3.60;;;;;;;;;;5014675;28;20239;-78
2023/01/03 01:04:08;;;;;;;3.60;3.30;;;;;;;;;;5016693;28;20241;-78
2023/01/03 01:06:36;;;;;;;3.93;3.50;;;;;;;;;;5034328;28;20665;-78
2023/01/03 01:09:04;;;;;;;3.83;3.53;;;;;;;;;;5034749;28;20590;-78
2023/01/03 01:11:32;;;;;;;5.63;3.93;;;;;;;;;;5034293;28;20242;-78
2023/01/03 01:13:59;;;;;;;3.87;3.47;;;;;;;;;;5033961;28;20214;-78
2023/01/03 01:16:26;;;;;;;3.87;3.40;;;;;;;;;;5014199;28;20585;-78
2023/01/03 01:18:54;;;;;;;4.20;3.80;;;;;;;;;;5014974;28;20188;-78
2023/01/03 01:21:24;;;;;;;4.23;3.83;;;;;;;;;;5014281;28;20246;-78
2023/01/03 01:23:52;;;;;;;6.03;4.30;;;;;;;;;;5014660;28;20204;-78
2023/01/03 01:26:20;;;;;;;4.40;4.00;;;;;;;;;;5032926;28;20238;-78
2023/01/03 01:28:47;;;;;;;4.70;3.70;;;;;;;;;;5034270;28;20218;-78
2023/01/03 01:31:15;;;;;;;4.57;4.17;;;;;;;;;;5034170;28;20242;-78
2023/01/03 01:33:42;;;;;;;5.97;3.77;;;;;;;;;;5034298;28;20763;-78
2023/01/03 01:36:11;;;;;;;5.10;4.27;;;;;;;;;;5016443;28;20745;-78
2023/01/03 01:38:39;;;;;;;4.80;4.00;;;;;;;;;;5014498;28;20211;-78
2023/01/03 01:41:06;;;;;;;4.30;4.00;;;;;;;;;;5014070;28;20630;-78
2023/01/03 01:46:20;;;;;;;5.23;4.37;;;;;;;;;;5014314;28;20234;-78
2023/01/03 01:48:48;;;;;;;4.17;3.70;;;;;;;;;;5014347;28;20211;-78
2023/01/03 01:51:15;;;;;;;4.43;4.07;;;;;;;;;;5013608;28;20246;-78
2023/01/03 01:53:43;;;;;;;4.00;3.70;;;;;;;;;;5014371;28;20211;-78
2023/01/03 01:56:16;;;;;;;4.70;4.10;;;;;;;;;;5013951;28;20238;-78
2023/01/03 01:58:45;;;;;;;4.40;4.00;;;;;;;;;;5013881;28;20203;-78
2023/01/03 02:01:13;;;;;;;5.20;3.83;;;;;;;;;;5021170;28;20242;-78
2023/01/03 02:03:41;;;;;;;4.97;4.23;;;;;;;;;;5026006;28;20252;-78
2023/01/03 02:06:10;;;;;;;4.77;3.97;;;;;;;;;;5031486;28;20710;-78
2023/01/03 02:08:37;;;;;;;4.53;4.20;;;;;;;;;;5029848;28;20199;-78
2023/01/03 02:11:13;;;;;;;4.70;4.20;;;;;;;;;;5032611;28;20242;-78
2023/01/03 02:13:46;;;;;;;5.63;4.87;;;;;;;;;;5033557;28;20218;-78
2023/01/03 02:16:20;;;;;;;5.17;4.67;;;;;;;;;;5033206;28;20760;-78
2023/01/03 02:18:51;;;;;;;4.87;4.47;;;;;;;;;;5033318;28;20206;-78
2023/01/03 02:21:36;;;;;;;4.93;4.53;;;;;;;;;;5028615;28;20734;-78
2023/01/03 02:24:20;;;;;;;4.87;4.47;;;;;;;;;;5013993;28;20211;-78
2023/01/03 02:26:58;;;;;;;4.40;4.10;;;;;;;;;;5013309;28;20245;-78
2023/01/03 02:29:55;;;;;;;5.20;4.70;;;;;;;;;;5013370;28;20210;-78
2023/01/03 02:32:27;;;;;;;5.20;4.70;;;;;;;;;;4971671;28;20332;-78
2023/01/03 02:34:59;;;;;;;5.03;4.63;;;;;;;;;;5021056;28;20604;-78
2023/01/03 02:37:30;;;;;;;6.03;4.70;;;;;;;;;;5032589;28;20243;-78
2023/01/03 02:40:00;;;;;;;4.33;4.00;;;;;;;;;;5033210;28;20210;-78
2023/01/03 02:45:18;;;;;;;5.90;5.30;;;;;;;;;;5032395;28;20201;-78
2023/01/03 02:47:49;;;;;;;5.70;4.50;;;;;;;;;;5032687;28;20234;-78
2023/01/03 02:50:16;;;;;;;4.70;4.30;;;;;;;;;;5032580;28;20233;-79
2023/01/03 02:52:45;;;;;;;5.60;3.97;;;;;;;;;;5015395;28;20204;-78
2023/01/03 02:55:14;;;;;;;4.60;4.20;;;;;;;;;;5012800;28;20211;-78
2023/01/03 02:57:45;;;;;;;4.40;4.00;;;;;;;;;;5018602;28;20246;-78
2023/01/03 03:00:15;;;;;;;3.90;3.60;;;;;;;;;;5032394;28;20229;-79
2023/01/03 03:02:48;;;;;;;4.10;3.80;;;;;;;;;;5032602;28;20214;-78
2023/01/03 03:05:20;;;;;;;3.77;3.53;;;;;;;;;;5032380;28;20213;-78
2023/01/03 03:07:47;;;;;;;4.73;4.23;;;;;;;;;;5026554;28;20219;-78
2023/01/03 03:13:13;;;;;;;4.13;3.83;;;;;;;;;;5012958;28;20186;-78
2023/01/03 03:15:42;;;;;;;6.43;4.27;;;;;;;;;;5012269;28;20658;-79
2023/01/03 03:18:11;;;;;;;5.33;4.60;;;;;;;;;;5020256;28;20269;-78
2023/01/03 03:26:15;;;;;;;5.13;4.30;;;;;;;;;;5012390;28;20280;-78
2023/01/03 03:28:44;;;;;;;5.03;4.13;;;;;;;;;;5012902;28;20206;-78
2023/01/03 03:31:13;;;;;;;5.17;4.60;;;;;;;;;;5012291;28;20231;-78
2023/01/03 03:33:41;;;;;;;5.20;4.43;;;;;;;;;;5012414;28;20203;-78
2023/01/03 03:36:12;;;;;;;6.23;4.20;;;;;;;;;;5012451;28;20331;-78
2023/01/03 03:38:41;;;;;;;4.73;4.30;;;;;;;;;;5012163;28;20632;-78
2023/01/03 03:46:47;;;;;;;5.57;4.93;;;;;;;;;;5011915;28;20246;-78
2023/01/03 03:52:05;;;;;;;5.17;4.63;;;;;;;;;;5012058;28;20242;-78
2023/01/03 03:54:34;;;;;;;5.27;4.73;;;;;;;;;;5012295;28;20261;-78
2023/01/03 03:57:04;;;;;;;6.13;5.40;;;;;;;;;;5011754;28;20243;-78
2023/01/03 03:59:32;;;;;;;5.87;5.30;;;;;;;;;;5012359;28;20569;-78
2023/01/03 04:02:00;;;;;;;7.43;4.97;;;;;;;;;;5011851;28;20703;-78
2023/01/03 04:04:29;;;;;;;6.03;5.40;;;;;;;;;;5012065;28;20211;-78
2023/01/03 04:06:56;;;;;;;6.83;5.60;;;;;;;;;;5011594;28;20246;-78
2023/01/03 04:09:25;;;;;;;6.67;5.47;;;;;;;;;;5016917;28;20206;-78
2023/01/03 04:11:52;;;;;;;6.30;5.30;;;;;;;;;;5031269;28;20238;-78
2023/01/03 04:14:19;;;;;;;6.73;5.70;;;;;;;;;;5031708;28;20252;-78
2023/01/03 04:16:46;;;;;;;6.33;5.73;;;;;;;;;;5031542;28;20605;-78
2023/01/03 04:19:13;;;;;;;6.70;6.00;;;;;;;;;;5031343;28;20202;-78
2023/01/03 04:21:40;;;;;;;7.47;6.70;;;;;;;;;;5031151;28;20237;-78
2023/01/03 04:24:07;;;;;;;7.03;6.33;;;;;;;;;;5031666;28;20214;-78
2023/01/03 04:26:35;;;;;;;7.20;6.50;;;;;;;;;;5031197;28;20296;-78
2023/01/03 04:29:02;;;;;;;8.37;6.87;;;;;;;;;;5022950;28;20199;-78
2023/01/03 04:31:29;;;;;;;7.57;6.77;;;;;;;;;;5015330;28;20235;-78
2023/01/03 04:33:56;;;;;;;9.33;6.30;;;;;;;;;;5015719;28;20211;-78
2023/01/03 04:36:23;;;;;;;9.27;6.77;;;;;;;;;;5015505;28;20654;-78
2023/01/03 04:38:51;;;;;;;7.83;6.70;;;;;;;;;;5015819;28;20214;-78
2023/01/03 04:41:18;;;;;;;10.20;7.50;;;;;;;;;;5015341;28;20229;-78
2023/01/03 04:44:00;;;;;;;11.00;7.33;;;;;;;;;;5016014;28;20222;-78
2023/01/03 04:46:28;;;;;;;8.20;7.30;;;;;;;;;;5015178;28;20234;-78
2023/01/03 04:48:55;;;;;;;8.93;7.10;;;;;;;;;;5015511;28;20613;-78
2023/01/03 04:51:22;;;;;;;9.93;7.60;;;;;;;;;;5014877;28;20238;-78
2023/01/03 04:53:49;;;;;;;12.27;7.23;;;;;;;;;;5015376;28;20211;-78
2023/01/03 04:56:16;;;;;;;8.97;7.60;;;;;;;;;;5014753;28;20285;-78
2023/01/03 04:58:43;;;;;;;7.90;7.03;;;;;;;;;;5020386;28;20198;-78
2023/01/03 05:01:11;;;;;;;7.30;6.47;;;;;;;;;;5034392;28;20227;-78
2023/01/03 05:03:38;;;;;;;6.90;6.20;;;;;;;;;;5034730;28;20214;-78
2023/01/03 05:06:06;;;;;;;7.00;6.00;;;;;;;;;;5034602;28;20234;-78
2023/01/03 05:08:33;;;;;;;7.57;6.03;;;;;;;;;;5016417;28;20255;-78
2023/01/03 05:11:00;;;;;;;10.60;6.30;;;;;;;;;;5014775;28;20246;-78
2023/01/03 05:13:27;;;;;;;9.47;7.03;;;;;;;;;;5015458;28;20211;-78
2023/01/03 05:15:54;;;;;;;7.77;6.97;;;;;;;;;;5014763;28;20653;-78
2023/01/03 05:18:23;;;;;;;7.37;6.63;;;;;;;;;;5015379;28;20238;-77
2023/01/03 05:26:22;;;;;;;5.90;5.07;;;;;;;;;;5027610;28;20615;-78
2023/01/03 05:28:51;;;;;;;7.97;5.93;;;;;;;;;;5034489;28;20206;-77
2023/01/03 05:31:18;;;;;;;5.40;4.90;;;;;;;;;;5034136;28;20284;-78
2023/01/03 05:33:46;;;;;;;5.80;5.30;;;;;;;;;;5029103;28;20203;-78
2023/01/03 05:36:13;;;;;;;5.37;4.87;;;;;;;;;;5014084;28;20239;-77
2023/01/03 05:38:40;;;;;;;5.10;4.70;;;;;;;;;;5014461;28;20887;-78
2023/01/03 05:41:08;;;;;;;5.47;4.83;;;;;;;;;;5013912;28;20235;-78
2023/01/03 05:43:35;;;;;;;4.97;4.57;;;;;;;;;;5014689;28;20211;-78
2023/01/03 05:46:02;;;;;;;7.97;4.90;;;;;;;;;;5013996;28;20238;-78
2023/01/03 05:48:29;;;;;;;5.83;4.83;;;;;;;;;;5013927;28;20234;-77
2023/01/03 05:50:58;;;;;;;5.20;4.70;;;;;;;;;;5014061;28;20246;-77
2023/01/03 05:53:25;;;;;;;5.87;4.97;;;;;;;;;;5014292;28;20210;-77
2023/01/03 05:55:52;;;;;;;5.77;4.80;;;;;;;;;;5014236;28;20235;-78
2023/01/03 05:58:19;;;;;;;6.17;4.90;;;;;;;;;;5014458;28;20228;-77
2023/01/03 06:00:47;;;;;;;5.47;4.70;;;;;;;;;;5013966;28;20239;-78
2023/01/03 06:03:14;;;;;;;5.93;5.23;;;;;;;;;;5014926;28;20202;-78
2023/01/03 06:05:41;;;;;;;5.93;5.30;;;;;;;;;;5014142;28;20237;-78
2023/01/03 06:08:09;;;;;;;5.43;4.93;;;;;;;;;;5013783;28;20640;-77
2023/01/03 06:10:39;;;;;;;5.10;4.70;;;;;;;;;;5013471;28;20990;-77
2023/01/03 06:13:06;;;;;;;5.77;4.97;;;;;;;;;;5013956;28;20646;-77
2023/01/03 06:15:33;;;;;;;6.80;5.77;;;;;;;;;;5013654;28;20329;-77
2023/01/03 06:18:01;;;;;;;5.77;5.23;;;;;;;;;;5013640;28;20279;-77
2023/01/03 06:20:28;;;;;;;6.17;5.30;;;;;;;;;;5013546;28;20610;-77
2023/01/03 06:22:55;;;;;;;5.30;4.80;;;;;;;;;;5014115;28;20293;-77
2023/01/03 06:25:24;;;;;;;6.07;5.47;;;;;;;;;;5013604;28;20252;-77
2023/01/03 06:27:51;;;;;;;5.57;5.03;;;;;;;;;;5013557;28;20226;-77
2023/01/03 06:30:18;;;;;;;5.47;4.97;;;;;;;;;;5013403;28;20214;-77
2023/01/03 06:32:45;;;;;;;5.73;5.13;;;;;;;;;;5013731;28;20234;-77
2023/01/03 06:35:12;;;;;;;8.20;5.17;;;;;;;;;;5013163;28;20214;-77
2023/01/03 06:37:39;;;;;;;6.90;5.17;;;;;;;;;;5013537;28;20268;-77
2023/01/03 06:40:07;;;;;;;6.07;5.10;;;;;;;;;;5013103;28;20217;-77
2023/01/03 06:42:44;;;;;;;6.03;5.43;;;;;;;;;;5023654;28;20566;-76
2023/01/03 06:53:41;;;;;;;6.60;6.00;;;;;;;;;;4993328;28;20649;-76
2023/01/03 06:56:09;;;;;;;9.33;7.43;;;;;;;;;;5012737;28;20698;-77
2023/01/03 06:58:37;;;;;;;12.27;9.17;;;;;;;;;;5016695;28;20247;-76
2023/01/03 07:01:05;;;;;;;13.63;10.23;;;;;;;;;;5012817;28;20704;-76
2023/01/03 07:03:32;;;;;;;18.13;9.97;;;;;;;;;;5020279;28;20679;-77
2023/01/03 07:06:00;;;;;;;11.03;9.53;;;;;;;;;;5030143;28;20234;-76
2023/01/03 07:08:27;;;;;;;14.23;9.90;;;;;;;;;;5032592;28;20596;-77
2023/01/03 07:10:55;;;;;;;10.43;7.60;;;;;;;;;;5030958;28;20235;-77
2023/01/03 07:16:13;;;;;;;10.07;7.70;;;;;;;;;;5032199;28;20703;-77
2023/01/03 07:18:40;;;;;;;8.97;7.60;;;;;;;;;;5032229;28;20610;-76
2023/01/03 07:21:07;;;;;;;10.73;7.23;;;;;;;;;;5019255;28;20598;-76
2023/01/03 07:23:34;;;;;;;9.67;7.53;;;;;;;;;;5012700;28;20207;-76
2023/01/03 07:26:02;;;;;;;11.30;7.73;;;;;;;;;;5012274;28;20242;-77
2023/01/03 07:28:29;;;;;;;10.70;7.97;;;;;;;;;;5012323;28;20227;-76
2023/01/03 07:31:00;;;;;;;12.17;8.67;;;;;;;;;;5025508;28;20238;-76
2023/01/03 07:33:28;;;;;;;11.23;7.77;;;;;;;;;;5029752;28;20292;-79
2023/01/03 07:36:00;;;;;;;11.43;8.93;;;;;;;;;;5033329;28;20318;-76
2023/01/03 07:38:27;;;;;;;13.00;9.30;;;;;;;;;;5034547;28;20256;-77
2023/01/03 07:40:56;;;;;;;10.50;8.90;;;;;;;;;;5029967;28;20261;-77
2023/01/03 07:43:38;;;;;;;12.30;9.37;;;;;;;;;;5031538;28;20222;-77
2023/01/03 07:46:06;;;;;;;13.20;8.67;;;;;;;;;;5031007;28;20241;-77
2023/01/03 07:48:34;;;;;;;13.70;9.47;;;;;;;;;;5030284;28;20234;-77
2023/01/03 07:51:02;;;;;;;13.97;9.27;;;;;;;;;;5030404;28;20230;-77
2023/01/03 07:53:29;;;;;;;16.40;10.40;;;;;;;;;;5030741;28;20231;-77
2023/01/03 07:56:02;;;;;;;18.37;10.70;;;;;;;;;;5030331;28;20238;-77
2023/01/03 07:58:29;;;;;;;17.87;10.73;;;;;;;;;;5028110;28;20222;-76
2023/01/03 08:00:56;;;;;;;14.73;10.47;;;;;;;;;;5030082;28;20321;-78
2023/01/03 08:03:23;;;;;;;14.07;10.53;;;;;;;;;;5030505;28;20202;-77
2023/01/03 08:05:52;;;;;;;16.07;11.27;;;;;;;;;;5030212;28;20598;-77
2023/01/03 08:08:19;;;;;;;21.10;13.57;;;;;;;;;;5029999;28;20223;-78
2023/01/03 08:13:30;;;;;;;18.57;11.70;;;;;;;;;;5029115;28;20214;-78
2023/01/03 08:15:57;;;;;;;25.33;16.27;;;;;;;;;;5029884;28;20253;-77
2023/01/03 08:18:25;;;;;;;24.17;19.73;;;;;;;;;;5029639;28;20233;-77
2023/01/03 08:20:55;;;;;;;17.57;13.10;;;;;;;;;;5030018;28;20236;-78
2023/01/03 08:23:23;;;;;;;16.80;10.87;;;;;;;;;;5014625;28;20199;-78
2023/01/03 08:25:50;;;;;;;18.17;12.57;;;;;;;;;;5029986;28;20233;-78
2023/01/03 08:28:17;;;;;;;17.33;11.50;;;;;;;;;;5029339;28;20229;-77
2023/01/03 08:30:47;;;;;;;13.33;10.03;;;;;;;;;;5030030;28;20234;-77
2023/01/03 08:33:15;;;;;;;16.07;10.20;;;;;;;;;;5030460;28;20237;-76
2023/01/03 08:35:44;;;;;;;11.27;9.27;;;;;;;;;;5021996;28;20234;-77
2023/01/03 08:38:14;;;;;;;13.90;9.43;;;;;;;;;;5029855;28;20219;-76
2023/01/03 08:40:42;;;;;;;13.53;9.80;;;;;;;;;;5027283;28;20232;-76
2023/01/03 08:43:09;;;;;;;13.97;10.30;;;;;;;;;;5030766;28;20200;-76
2023/01/03 08:45:38;;;;;;;12.67;9.70;;;;;;;;;;5029794;28;20243;-76
2023/01/03 08:48:06;;;;;;;15.20;11.20;;;;;;;;;;5029639;28;20245;-76
2023/01/03 08:50:33;;;;;;;15.83;10.80;;;;;;;;;;5029708;28;20284;-76
2023/01/03 08:53:00;;;;;;;16.67;11.77;;;;;;;;;;5030278;28;20223;-76
2023/01/03 08:55:28;;;;;;;33.50;18.70;;;;;;;;;;5029327;28;20242;-76
2023/01/03 08:57:55;;;;;;;26.87;16.03;;;;;;;;;;5022269;28;20708;-76
2023/01/03 09:00:22;;;;;;;15.03;11.07;;;;;;;;;;5023845;28;20206;-77
2023/01/03 09:02:49;;;;;;;21.97;12.90;;;;;;;;;;5026833;28;20517;-76
2023/01/03 09:05:16;;;;;;;42.47;24.43;;;;;;;;;;5025472;28;20690;-76
2023/01/03 09:07:43;;;;;;;21.83;14.67;;;;;;;;;;5029831;28;20262;-77
2023/01/03 09:10:11;;;;;;;23.13;13.83;;;;;;;;;;5030230;28;20294;-78
2023/01/03 09:12:39;;;;;;;23.80;14.20;;;;;;;;;;5026414;28;20757;-76
2023/01/03 09:15:07;;;;;;;22.63;11.33;;;;;;;;;;5030123;28;20207;-77
2023/01/03 09:17:34;;;;;;;20.03;12.00;;;;;;;;;;5033473;28;20265;-76
2023/01/03 09:20:01;;;;;;;11.40;9.53;;;;;;;;;;5032988;28;20569;-77
2023/01/03 09:22:28;;;;;;;21.27;13.10;;;;;;;;;;5033421;28;20284;-77
2023/01/03 09:24:55;;;;;;;28.50;15.13;;;;;;;;;;5021195;28;20207;-77
2023/01/03 09:27:22;;;;;;;21.53;13.47;;;;;;;;;;5012853;28;20290;-77
2023/01/03 09:29:52;;;;;;;26.23;14.80;;;;;;;;;;5013210;28;20211;-77
2023/01/03 09:32:19;;;;;;;24.50;14.77;;;;;;;;;;5022013;28;21141;-77
2023/01/03 09:34:47;;;;;;;29.10;16.60;;;;;;;;;;5033939;28;20265;-77
2023/01/03 09:37:14;;;;;;;23.57;13.90;;;;;;;;;;5032945;28;20241;-77
2023/01/03 09:39:41;;;;;;;22.87;13.63;;;;;;;;;;5027922;28;20203;-77
2023/01/03 09:44:57;;;;;;;28.87;16.70;;;;;;;;;;5033785;28;20201;-77
2023/01/03 09:47:25;;;;;;;31.47;19.73;;;;;;;;;;5032817;28;20316;-77
2023/01/03 09:49:53;;;;;;;27.63;16.40;;;;;;;;;;5032612;28;20826;-77
2023/01/03 10:03:44;;;;;;;28.03;13.50;;;;;;;;;;5033284;28;20283;-76
2023/01/03 10:06:13;;;;;;;24.33;11.83;;;;;;;;;;5032640;28;20240;-77
2023/01/03 10:08:45;;;;;;;20.63;13.20;;;;;;;;;;5031564;28;20226;-77
2023/01/03 10:11:19;;;;;;;18.27;12.40;;;;;;;;;;5025919;28;20315;-76
2023/01/03 10:13:58;;;;;;;16.80;9.70;;;;;;;;;;5045990;28;20236;-76
2023/01/03 10:16:33;;;;;;;13.67;9.20;;;;;;;;;;5031188;28;20753;-76
2023/01/03 10:19:16;;;;;;;21.77;11.40;;;;;;;;;;5035297;28;20207;-76
2023/01/03 10:21:50;;;;;;;21.97;11.20;;;;;;;;;;5042268;28;20241;-76
2023/01/03 10:24:19;;;;;;;14.43;9.87;;;;;;;;;;5046219;28;20352;-76
2023/01/03 10:26:46;;;;;;;19.50;9.33;;;;;;;;;;5050516;28;20261;-76
2023/01/03 10:29:16;;;;;;;11.50;6.80;;;;;;;;;;5034936;28;20210;-76
2023/01/03 10:31:51;;;;;;;13.87;8.37;;;;;;;;;;5031089;28;20242;-76
2023/01/03 10:34:18;;;;;;;9.33;7.17;;;;;;;;;;5032361;28;20237;-76
2023/01/03 10:36:45;;;;;;;10.67;7.07;;;;;;;;;;5031154;28;20597;-76
2023/01/03 10:39:12;;;;;;;8.33;7.20;;;;;;;;;;5031596;28;20693;-76
2023/01/03 10:41:43;;;;;;;13.27;6.90;;;;;;;;;;5030690;28;20241;-76
2023/01/03 10:44:22;;;;;;;8.97;6.77;;;;;;;;;;5031783;28;20214;-77
2023/01/03 10:46:52;;;;;;;9.23;7.00;;;;;;;;;;5031330;28;20234;-77
2023/01/03 10:49:20;;;;;;;11.90;7.13;;;;;;;;;;5030874;28;20752;-76
2023/01/03 10:51:52;;;;;;;7.17;5.30;;;;;;;;;;5031131;28;20243;-76
2023/01/03 10:54:24;;;;;;;8.83;5.83;;;;;;;;;;5031322;28;20238;-75
2023/01/03 10:56:52;;;;;;;8.67;4.50;;;;;;;;;;5030876;28;20242;-76
2023/01/03 10:59:23;;;;;;;4.30;3.90;;;;;;;;;;5032618;28;20206;-76
2023/01/03 11:01:58;;;;;;;7.13;4.20;;;;;;;;;;5029663;28;20249;-76
2023/01/03 11:04:25;;;;;;;5.00;4.57;;;;;;;;;;5031060;28;20267;-76
2023/01/03 11:07:00;;;;;;;3.80;3.33;;;;;;;;;;5030628;28;20242;-76
2023/01/03 11:09:28;;;;;;;6.00;3.80;;;;;;;;;;5030832;28;20205;-76
2023/01/03 11:12:00;;;;;;;3.73;3.40;;;;;;;;;;5030884;28;20282;-76
2023/01/03 11:14:28;;;;;;;5.43;4.10;;;;;;;;;;5030762;28;20634;-76
2023/01/03 11:16:56;;;;;;;3.27;2.87;;;;;;;;;;5030606;28;20249;-76
2023/01/03 11:19:26;;;;;;;7.10;4.30;;;;;;;;;;5030270;28;20257;-76
2023/01/03 11:21:55;;;;;;;5.40;3.80;;;;;;;;;;5030788;28;20230;-77
2023/01/03 11:24:39;;;;;;;4.43;3.60;;;;;;;;;;5030458;28;20198;-77
2023/01/03 11:27:12;;;;;;;6.73;3.67;;;;;;;;;;5030449;28;20242;-76
2023/01/03 11:29:53;;;;;;;7.27;4.30;;;;;;;;;;5030634;28;20215;-76
2023/01/03 11:32:24;;;;;;;3.87;3.53;;;;;;;;;;5030639;28;20234;-77
2023/01/03 11:35:04;;;;;;;4.97;3.80;;;;;;;;;;5030856;28;20203;-77
2023/01/03 11:37:35;;;;;;;3.73;3.43;;;;;;;;;;5030202;28;20254;-77
2023/01/03 11:40:08;;;;;;;4.70;3.47;;;;;;;;;;5030241;28;20663;-77
2023/01/03 11:42:39;;;;;;;5.37;3.37;;;;;;;;;;5022888;28;20671;-77
2023/01/03 11:45:16;;;;;;;4.30;3.90;;;;;;;;;;5031426;28;20514;-78
2023/01/03 11:47:47;;;;;;;5.13;4.40;;;;;;;;;;5034010;28;20218;-77
2023/01/03 11:50:25;;;;;;;8.53;3.97;;;;;;;;;;5029671;28;20195;-78
2023/01/03 11:52:57;;;;;;;5.00;3.87;;;;;;;;;;5030193;28;20226;-78
2023/01/03 11:55:34;;;;;;;4.57;3.80;;;;;;;;;;5029264;28;20230;-78
2023/01/03 11:58:07;;;;;;;5.93;4.07;;;;;;;;;;5029707;28;20218;-78
2023/01/03 12:00:35;;;;;;;6.20;4.37;;;;;;;;;;5029827;28;20291;-78
2023/01/03 12:03:04;;;;;;;4.17;3.67;;;;;;;;;;5029806;28;20206;-78
2023/01/03 12:05:44;;;;;;;4.73;4.13;;;;;;;;;;5029145;28;20234;-77
2023/01/03 12:08:31;;;;;;;4.70;4.20;;;;;;;;;;5029635;28;20226;-77
2023/01/03 12:11:02;;;;;;;5.13;4.27;;;;;;;;;;5029994;28;20233;-77
2023/01/03 12:13:33;;;;;;;4.60;4.20;;;;;;;;;;5029594;28;20241;-77
2023/01/03 12:16:03;;;;;;;3.70;3.17;;;;;;;;;;5029490;28;20242;-78
2023/01/03 12:18:38;;;;;;;4.20;3.80;;;;;;;;;;5029242;28;20267;-77
2023/01/03 12:21:10;;;;;;;5.23;4.10;;;;;;;;;;5029890;28;20238;-78
2023/01/03 12:23:41;;;;;;;4.93;3.83;;;;;;;;;;5029911;28;20211;-78
2023/01/03 12:26:10;;;;;;;4.73;3.33;;;;;;;;;;5029557;28;20284;-78
2023/01/03 12:28:39;;;;;;;4.10;3.70;;;;;;;;;;5029465;28;20255;-78
2023/01/03 12:31:12;;;;;;;4.83;3.60;;;;;;;;;;5030109;28;20234;-77
2023/01/03 12:33:43;;;;;;;3.43;3.13;;;;;;;;;;5009703;28;20235;-78
2023/01/03 12:36:20;;;;;;;4.10;3.30;;;;;;;;;;5009858;28;20242;-77
2023/01/03 12:38:54;;;;;;;4.00;3.20;;;;;;;;;;5010022;28;20580;-77
2023/01/03 12:41:26;;;;;;;5.00;3.43;;;;;;;;;;5009801;28;20257;-77
2023/01/03 12:43:55;;;;;;;3.20;2.90;;;;;;;;;;5010230;28;20226;-77
2023/01/03 12:46:24;;;;;;;4.97;3.60;;;;;;;;;;5009625;28;20231;-77
2023/01/03 12:48:57;;;;;;;4.97;4.00;;;;;;;;;;5010099;28;20580;-77
2023/01/03 12:51:26;;;;;;;4.50;3.73;;;;;;;;;;5012038;28;20293;-77
2023/01/03 12:54:00;;;;;;;5.67;3.93;;;;;;;;;;5013653;28;20239;-78
2023/01/03 12:56:34;;;;;;;6.70;4.17;;;;;;;;;;5013077;28;20243;-77
2023/01/03 12:59:06;;;;;;;4.47;3.67;;;;;;;;;;5013527;28;20569;-78
2023/01/03 13:01:37;;;;;;;4.20;3.80;;;;;;;;;;5013455;28;20668;-78
2023/01/03 13:04:08;;;;;;;5.40;3.27;;;;;;;;;;5036299;28;20202;-78
2023/01/03 13:06:39;;;;;;;6.57;4.60;;;;;;;;;;5049301;28;20242;-77
2023/01/03 13:09:09;;;;;;;6.93;4.37;;;;;;;;;;5052960;28;20228;-78
2023/01/03 13:11:37;;;;;;;5.50;3.33;;;;;;;;;;5052640;28;20241;-78
2023/01/03 13:14:05;;;;;;;6.03;3.43;;;;;;;;;;5053066;28;20230;-78
2023/01/03 13:16:43;;;;;;;5.20;3.60;;;;;;;;;;5052016;28;20240;-77
2023/01/03 13:19:29;;;;;;;5.00;2.90;;;;;;;;;;5052773;28;20283;-78
2023/01/03 13:22:19;;;;;;;4.40;3.80;;;;;;;;;;5052260;28;20651;-78
2023/01/03 13:24:48;;;;;;;5.50;3.53;;;;;;;;;;5052019;28;20233;-78
2023/01/03 13:27:22;;;;;;;5.90;3.60;;;;;;;;;;5052511;28;20240;-78
2023/01/03 13:29:54;;;;;;;6.47;3.60;;;;;;;;;;5052672;28;20634;-77
2023/01/03 13:32:26;;;;;;;3.80;3.20;;;;;;;;;;5042807;28;20710;-77
2023/01/03 13:35:17;;;;;;;5.10;3.30;;;;;;;;;;5032002;28;20288;-77
2023/01/03 13:37:46;;;;;;;4.97;3.47;;;;;;;;;;5021391;28;20235;-78
2023/01/03 13:40:24;;;;;;;3.93;3.63;;;;;;;;;;5032711;28;20206;-78
2023/01/03 13:43:01;;;;;;;5.33;4.00;;;;;;;;;;5032754;28;20214;-78
2023/01/03 13:45:55;;;;;;;4.03;3.63;;;;;;;;;;5031916;28;20647;-78
2023/01/03 13:48:26;;;;;;;8.10;4.53;;;;;;;;;;5032082;28;20318;-78
2023/01/03 13:51:13;;;;;;;6.63;4.40;;;;;;;;;;5032554;28;20318;-77
2023/01/03 13:53:52;;;;;;;9.87;4.87;;;;;;;;;;5031640;28;20321;-77
2023/01/03 13:56:20;;;;;;;9.03;5.10;;;;;;;;;;5031870;28;20241;-78
2023/01/03 13:58:49;;;;;;;10.00;5.17;;;;;;;;;;5032130;28;20207;-77
2023/01/03 14:01:22;;;;;;;5.97;4.30;;;;;;;;;;5031868;28;20719;-77
2023/01/03 14:04:02;;;;;;;5.97;4.63;;;;;;;;;;5032161;28;20613;-77
2023/01/03 14:06:41;;;;;;;5.13;4.13;;;;;;;;;;5031293;28;20247;-77
2023/01/03 14:09:26;;;;;;;4.57;3.80;;;;;;;;;;5032055;28;20187;-77
2023/01/03 14:12:03;;;;;;;7.40;3.73;;;;;;;;;;5031751;28;20725;-77
2023/01/03 14:14:33;;;;;;;5.57;3.87;;;;;;;;;;5031458;28;20265;-78
2023/01/03 14:17:01;;;;;;;7.17;4.23;;;;;;;;;;5031085;28;20238;-77
2023/01/03 14:19:31;;;;;;;6.43;4.40;;;;;;;;;;5031211;28;20206;-78
2023/01/03 14:21:59;;;;;;;5.87;3.83;;;;;;;;;;5031309;28;20235;-77
2023/01/03 14:24:27;;;;;;;6.13;4.47;;;;;;;;;;5030972;28;20229;-77
2023/01/03 14:26:54;;;;;;;4.90;3.90;;;;;;;;;;5031228;28;20253;-77
2023/01/03 14:29:23;;;;;;;5.80;3.57;;;;;;;;;;5030663;28;20214;-77
2023/01/03 14:31:54;;;;;;;6.23;4.17;;;;;;;;;;5026129;28;20264;-77
2023/01/03 14:34:27;;;;;;;3.80;3.43;;;;;;;;;;5010991;28;20227;-77
2023/01/03 14:37:00;;;;;;;5.53;3.40;;;;;;;;;;5019988;28;20246;-78
2023/01/03 14:39:31;;;;;;;7.90;3.83;;;;;;;;;;5030862;28;20207;-78
2023/01/03 14:41:58;;;;;;;4.17;3.63;;;;;;;;;;5031241;28;20242;-78
2023/01/03 14:44:28;;;;;;;4.37;3.70;;;;;;;;;;5030965;28;20286;-78
2023/01/03 14:46:56;;;;;;;4.00;3.67;;;;;;;;;;5031140;28;20277;-77
2023/01/03 14:49:25;;;;;;;5.17;3.80;;;;;;;;;;5030880;28;20206;-77
2023/01/03 14:51:56;;;;;;;3.77;3.20;;;;;;;;;;5030966;28;20238;-77
2023/01/03 14:54:23;;;;;;;4.80;4.30;;;;;;;;;;5030658;28;20229;-78
2023/01/03 14:56:50;;;;;;;7.03;4.13;;;;;;;;;;5040570;28;20260;-78
2023/01/03 14:59:19;;;;;;;4.20;3.80;;;;;;;;;;5050918;28;20202;-78
2023/01/03 15:01:47;;;;;;;7.00;4.30;;;;;;;;;;5050936;28;20237;-78
2023/01/03 15:04:15;;;;;;;5.17;4.20;;;;;;;;;;5050838;28;20201;-78
2023/01/03 15:06:55;;;;;;;15.17;6.97;;;;;;;;;;5050083;28;20690;-78
2023/01/03 15:09:22;;;;;;;6.73;5.53;;;;;;;;;;5050578;28;20205;-78
2023/01/03 15:11:56;;;;;;;12.83;8.90;;;;;;;;;;5050644;28;20246;-77
2023/01/03 15:14:24;;;;;;;15.53;6.83;;;;;;;;;;5050314;28;20226;-78
2023/01/03 15:16:53;;;;;;;21.77;15.40;;;;;;;;;;5050256;28;20612;-78
2023/01/03 15:19:21;;;;;;;21.53;14.10;;;;;;;;;;5050592;28;20701;-77
2023/01/03 15:21:48;;;;;;;8.33;6.83;;;;;;;;;;5050521;28;20238;-78
2023/01/03 15:24:17;;;;;;;7.60;4.67;;;;;;;;;;5050819;28;20202;-78
2023/01/03 15:26:45;;;;;;;5.30;4.57;;;;;;;;;;5050278;28;20241;-78
2023/01/03 15:29:14;;;;;;;4.80;4.40;;;;;;;;;;5050712;28;20632;-78
2023/01/03 15:31:48;;;;;;;7.47;4.53;;;;;;;;;;5046256;28;20721;-78
2023/01/03 15:34:17;;;;;;;6.17;4.20;;;;;;;;;;5030864;28;20222;-78
2023/01/03 15:36:46;;;;;;;9.33;4.53;;;;;;;;;;5029887;28;20234;-77
2023/01/03 15:39:17;;;;;;;7.50;4.50;;;;;;;;;;5030289;28;20693;-77
2023/01/03 15:44:29;;;;;;;5.23;4.50;;;;;;;;;;5030161;28;20206;-77
2023/01/03 15:46:59;;;;;;;5.47;4.43;;;;;;;;;;5029980;28;20928;-77
2023/01/03 15:49:27;;;;;;;9.47;5.73;;;;;;;;;;5029700;28;20195;-76
2023/01/03 15:51:55;;;;;;;8.87;6.40;;;;;;;;;;5030179;28;20238;-78